Terminal Aerodrome Forecast
Issued by NWS Amarillo, TX

Home | Current Version | Previous Version | Text Only | Print | Product List | Glossary On
Versions: 1 2 3 4 5 6 7 8 9 10 11 12 13 14
000
FTUS44 KAMA 282330 CCA
TAFDHT
TAF COR
KDHT 282330Z 2900/2924 08008KT P6SM BKN080
     FM290200 VRB05KT P6SM SKC
     FM292100 09007KT P6SM SCT090=

USA.gov is the U.S. government's official web portal to all federal, state and local government web resources and services.